sensor_id;sensor_type;location;lat;lon;timestamp;P1;durP1;ratioP1;P2;durP2;ratioP2
4748;SDS011;2388;53.582;9.962;2023-04-24T00:01:36;6.03;;;5.33;;
4748;SDS011;2388;53.582;9.962;2023-04-24T00:04:01;6.33;;;5.87;;
4748;SDS011;2388;53.582;9.962;2023-04-24T00:06:28;5.80;;;5.40;;
4748;SDS011;2388;53.582;9.962;2023-04-24T00:08:58;5.87;;;5.43;;
4748;SDS011;2388;53.582;9.962;2023-04-24T00:11:27;6.37;;;5.77;;
4748;SDS011;2388;53.582;9.962;2023-04-24T00:13:53;5.43;;;5.03;;
4748;SDS011;2388;53.582;9.962;2023-04-24T00:16:18;6.30;;;5.63;;
4748;SDS011;2388;53.582;9.962;2023-04-24T00:18:44;8.23;;;5.90;;
4748;SDS011;2388;53.582;9.962;2023-04-24T00:21:10;6.30;;;5.70;;
4748;SDS011;2388;53.582;9.962;2023-04-24T00:23:35;6.17;;;5.67;;
4748;SDS011;2388;53.582;9.962;2023-04-24T00:26:01;5.57;;;5.07;;
4748;SDS011;2388;53.582;9.962;2023-04-24T00:28:27;4.87;;;4.57;;
4748;SDS011;2388;53.582;9.962;2023-04-24T00:30:52;5.10;;;4.63;;
4748;SDS011;2388;53.582;9.962;2023-04-24T00:33:18;5.50;;;5.00;;
4748;SDS011;2388;53.582;9.962;2023-04-24T00:35:44;5.53;;;5.00;;
4748;SDS011;2388;53.582;9.962;2023-04-24T00:38:10;6.60;;;4.80;;
4748;SDS011;2388;53.582;9.962;2023-04-24T00:40:35;5.33;;;4.93;;
4748;SDS011;2388;53.582;9.962;2023-04-24T00:43:01;5.47;;;4.97;;
4748;SDS011;2388;53.582;9.962;2023-04-24T00:45:26;5.10;;;4.60;;
4748;SDS011;2388;53.582;9.962;2023-04-24T00:47:52;4.70;;;4.20;;
4748;SDS011;2388;53.582;9.962;2023-04-24T00:50:18;5.90;;;5.30;;
4748;SDS011;2388;53.582;9.962;2023-04-24T00:52:46;5.10;;;4.80;;
4748;SDS011;2388;53.582;9.962;2023-04-24T00:55:12;5.67;;;5.10;;
4748;SDS011;2388;53.582;9.962;2023-04-24T00:57:37;5.93;;;5.43;;
4748;SDS011;2388;53.582;9.962;2023-04-24T01:00:04;5.37;;;4.87;;
4748;SDS011;2388;53.582;9.962;2023-04-24T01:02:30;5.53;;;5.03;;
4748;SDS011;2388;53.582;9.962;2023-04-24T01:04:59;8.27;;;5.00;;
4748;SDS011;2388;53.582;9.962;2023-04-24T01:07:25;5.03;;;4.57;;
4748;SDS011;2388;53.582;9.962;2023-04-24T01:09:52;5.27;;;4.87;;
4748;SDS011;2388;53.582;9.962;2023-04-24T01:12:18;5.70;;;5.30;;
4748;SDS011;2388;53.582;9.962;2023-04-24T01:14:43;5.60;;;5.17;;
4748;SDS011;2388;53.582;9.962;2023-04-24T01:17:09;4.20;;;3.83;;
4748;SDS011;2388;53.582;9.962;2023-04-24T01:19:35;4.90;;;4.50;;
4748;SDS011;2388;53.582;9.962;2023-04-24T01:22:02;4.60;;;4.30;;
4748;SDS011;2388;53.582;9.962;2023-04-24T01:24:28;5.30;;;4.80;;
4748;SDS011;2388;53.582;9.962;2023-04-24T01:26:54;4.20;;;3.90;;
4748;SDS011;2388;53.582;9.962;2023-04-24T01:29:19;4.03;;;3.83;;
4748;SDS011;2388;53.582;9.962;2023-04-24T01:31:45;5.40;;;4.57;;
4748;SDS011;2388;53.582;9.962;2023-04-24T01:34:11;4.53;;;4.13;;
4748;SDS011;2388;53.582;9.962;2023-04-24T01:36:37;4.37;;;4.07;;
4748;SDS011;2388;53.582;9.962;2023-04-24T01:39:03;5.07;;;4.67;;
4748;SDS011;2388;53.582;9.962;2023-04-24T01:41:29;4.63;;;4.23;;
4748;SDS011;2388;53.582;9.962;2023-04-24T01:43:55;6.53;;;3.90;;
4748;SDS011;2388;53.582;9.962;2023-04-24T01:46:22;3.50;;;3.23;;
4748;SDS011;2388;53.582;9.962;2023-04-24T01:48:49;3.80;;;3.50;;
4748;SDS011;2388;53.582;9.962;2023-04-24T01:51:16;4.20;;;3.97;;
4748;SDS011;2388;53.582;9.962;2023-04-24T01:53:42;4.33;;;3.33;;
4748;SDS011;2388;53.582;9.962;2023-04-24T01:56:07;10.73;;;3.37;;
4748;SDS011;2388;53.582;9.962;2023-04-24T01:58:33;2.97;;;2.87;;
4748;SDS011;2388;53.582;9.962;2023-04-24T02:00:59;2.70;;;2.60;;
4748;SDS011;2388;53.582;9.962;2023-04-24T02:03:25;4.57;;;2.77;;
4748;SDS011;2388;53.582;9.962;2023-04-24T02:05:51;2.90;;;2.70;;
4748;SDS011;2388;53.582;9.962;2023-04-24T02:08:17;9.77;;;2.53;;
4748;SDS011;2388;53.582;9.962;2023-04-24T02:10:42;1.83;;;1.73;;
4748;SDS011;2388;53.582;9.962;2023-04-24T02:13:08;1.80;;;1.70;;
4748;SDS011;2388;53.582;9.962;2023-04-24T02:15:33;3.23;;;1.87;;
4748;SDS011;2388;53.582;9.962;2023-04-24T02:17:59;2.27;;;1.90;;
4748;SDS011;2388;53.582;9.962;2023-04-24T02:20:24;1.90;;;1.80;;
4748;SDS011;2388;53.582;9.962;2023-04-24T02:22:50;1.40;;;1.30;;
4748;SDS011;2388;53.582;9.962;2023-04-24T02:25:15;1.70;;;1.60;;
4748;SDS011;2388;53.582;9.962;2023-04-24T02:27:41;2.00;;;1.80;;
4748;SDS011;2388;53.582;9.962;2023-04-24T02:30:06;3.40;;;1.27;;
4748;SDS011;2388;53.582;9.962;2023-04-24T02:32:33;2.40;;;1.30;;
4748;SDS011;2388;53.582;9.962;2023-04-24T02:34:59;2.13;;;1.40;;
4748;SDS011;2388;53.582;9.962;2023-04-24T02:37:24;1.47;;;1.23;;
4748;SDS011;2388;53.582;9.962;2023-04-24T02:39:50;3.70;;;2.20;;
4748;SDS011;2388;53.582;9.962;2023-04-24T02:42:15;2.30;;;2.10;;
4748;SDS011;2388;53.582;9.962;2023-04-24T02:44:41;3.17;;;1.97;;
4748;SDS011;2388;53.582;9.962;2023-04-24T02:47:06;6.10;;;2.20;;
4748;SDS011;2388;53.582;9.962;2023-04-24T02:49:33;8.03;;;2.10;;
4748;SDS011;2388;53.582;9.962;2023-04-24T02:51:59;2.20;;;2.00;;
4748;SDS011;2388;53.582;9.962;2023-04-24T02:54:24;2.10;;;2.00;;
4748;SDS011;2388;53.582;9.962;2023-04-24T02:56:50;2.53;;;2.30;;
4748;SDS011;2388;53.582;9.962;2023-04-24T02:59:15;2.00;;;1.67;;
4748;SDS011;2388;53.582;9.962;2023-04-24T03:01:41;2.53;;;1.93;;
4748;SDS011;2388;53.582;9.962;2023-04-24T03:04:06;2.50;;;2.17;;
4748;SDS011;2388;53.582;9.962;2023-04-24T03:06:32;2.30;;;2.20;;
4748;SDS011;2388;53.582;9.962;2023-04-24T03:08:57;2.10;;;1.90;;
4748;SDS011;2388;53.582;9.962;2023-04-24T03:11:23;4.73;;;2.57;;
4748;SDS011;2388;53.582;9.962;2023-04-24T03:13:48;4.10;;;1.73;;
4748;SDS011;2388;53.582;9.962;2023-04-24T03:16:14;1.70;;;1.60;;
4748;SDS011;2388;53.582;9.962;2023-04-24T03:18:39;2.33;;;1.50;;
4748;SDS011;2388;53.582;9.962;2023-04-24T03:21:05;7.57;;;1.80;;
4748;SDS011;2388;53.582;9.962;2023-04-24T03:23:30;3.10;;;1.97;;
4748;SDS011;2388;53.582;9.962;2023-04-24T03:25:56;2.40;;;1.47;;
4748;SDS011;2388;53.582;9.962;2023-04-24T03:28:21;1.40;;;1.30;;
4748;SDS011;2388;53.582;9.962;2023-04-24T03:30:47;1.60;;;1.50;;
4748;SDS011;2388;53.582;9.962;2023-04-24T03:33:12;2.17;;;1.03;;
4748;SDS011;2388;53.582;9.962;2023-04-24T03:35:38;1.47;;;1.37;;
4748;SDS011;2388;53.582;9.962;2023-04-24T03:38:03;1.13;;;1.13;;
4748;SDS011;2388;53.582;9.962;2023-04-24T03:40:32;1.40;;;1.27;;
4748;SDS011;2388;53.582;9.962;2023-04-24T03:42:58;1.40;;;1.30;;
4748;SDS011;2388;53.582;9.962;2023-04-24T03:45:24;1.47;;;1.37;;
4748;SDS011;2388;53.582;9.962;2023-04-24T03:47:49;1.33;;;1.23;;
4748;SDS011;2388;53.582;9.962;2023-04-24T03:50:15;1.47;;;1.37;;
4748;SDS011;2388;53.582;9.962;2023-04-24T03:52:40;1.40;;;1.30;;
4748;SDS011;2388;53.582;9.962;2023-04-24T03:55:06;2.90;;;1.53;;
4748;SDS011;2388;53.582;9.962;2023-04-24T03:57:32;1.17;;;1.00;;
4748;SDS011;2388;53.582;9.962;2023-04-24T03:59:57;3.07;;;1.20;;
4748;SDS011;2388;53.582;9.962;2023-04-24T04:02:23;2.03;;;1.57;;
4748;SDS011;2388;53.582;9.962;2023-04-24T04:04:48;1.30;;;1.20;;
4748;SDS011;2388;53.582;9.962;2023-04-24T04:07:14;1.53;;;1.00;;
4748;SDS011;2388;53.582;9.962;2023-04-24T04:09:39;2.00;;;1.30;;
4748;SDS011;2388;53.582;9.962;2023-04-24T04:12:05;1.37;;;1.17;;
4748;SDS011;2388;53.582;9.962;2023-04-24T04:14:30;1.30;;;1.17;;
4748;SDS011;2388;53.582;9.962;2023-04-24T04:16:56;3.87;;;1.10;;
4748;SDS011;2388;53.582;9.962;2023-04-24T04:19:21;1.30;;;1.10;;
4748;SDS011;2388;53.582;9.962;2023-04-24T04:21:47;1.00;;;1.00;;
4748;SDS011;2388;53.582;9.962;2023-04-24T04:24:17;1.00;;;1.00;;
4748;SDS011;2388;53.582;9.962;2023-04-24T04:26:43;1.10;;;1.00;;
4748;SDS011;2388;53.582;9.962;2023-04-24T04:29:11;1.90;;;1.07;;
4748;SDS011;2388;53.582;9.962;2023-04-24T04:31:38;1.00;;;0.90;;
4748;SDS011;2388;53.582;9.962;2023-04-24T04:34:03;2.70;;;1.00;;
4748;SDS011;2388;53.582;9.962;2023-04-24T04:36:29;0.90;;;0.90;;
4748;SDS011;2388;53.582;9.962;2023-04-24T04:38:54;1.73;;;1.20;;
4748;SDS011;2388;53.582;9.962;2023-04-24T04:41:20;1.20;;;1.10;;
4748;SDS011;2388;53.582;9.962;2023-04-24T04:43:45;2.10;;;0.83;;
4748;SDS011;2388;53.582;9.962;2023-04-24T04:46:11;3.60;;;0.80;;
4748;SDS011;2388;53.582;9.962;2023-04-24T04:48:36;0.87;;;0.87;;
4748;SDS011;2388;53.582;9.962;2023-04-24T04:51:03;1.23;;;1.13;;
4748;SDS011;2388;53.582;9.962;2023-04-24T04:53:28;1.17;;;1.00;;
4748;SDS011;2388;53.582;9.962;2023-04-24T04:55:54;1.47;;;1.00;;
4748;SDS011;2388;53.582;9.962;2023-04-24T04:58:19;1.07;;;0.97;;
4748;SDS011;2388;53.582;9.962;2023-04-24T05:00:45;0.80;;;0.80;;
4748;SDS011;2388;53.582;9.962;2023-04-24T05:03:11;1.47;;;1.20;;
4748;SDS011;2388;53.582;9.962;2023-04-24T05:05:36;0.83;;;0.80;;
4748;SDS011;2388;53.582;9.962;2023-04-24T05:08:05;1.20;;;1.10;;
4748;SDS011;2388;53.582;9.962;2023-04-24T05:10:32;1.83;;;0.80;;
4748;SDS011;2388;53.582;9.962;2023-04-24T05:12:57;1.30;;;0.93;;
4748;SDS011;2388;53.582;9.962;2023-04-24T05:15:23;1.00;;;0.90;;
4748;SDS011;2388;53.582;9.962;2023-04-24T05:17:48;1.30;;;1.20;;
4748;SDS011;2388;53.582;9.962;2023-04-24T05:20:14;0.80;;;0.80;;
4748;SDS011;2388;53.582;9.962;2023-04-24T05:22:39;1.30;;;1.20;;
4748;SDS011;2388;53.582;9.962;2023-04-24T05:25:05;1.87;;;1.77;;
4748;SDS011;2388;53.582;9.962;2023-04-24T05:27:30;0.90;;;0.90;;
4748;SDS011;2388;53.582;9.962;2023-04-24T05:29:56;0.90;;;0.80;;
4748;SDS011;2388;53.582;9.962;2023-04-24T05:32:22;1.17;;;1.07;;
4748;SDS011;2388;53.582;9.962;2023-04-24T05:34:47;5.40;;;1.47;;
4748;SDS011;2388;53.582;9.962;2023-04-24T05:37:13;3.33;;;0.80;;
4748;SDS011;2388;53.582;9.962;2023-04-24T05:39:38;0.70;;;0.70;;
4748;SDS011;2388;53.582;9.962;2023-04-24T05:42:05;1.67;;;0.80;;
4748;SDS011;2388;53.582;9.962;2023-04-24T05:44:31;1.17;;;1.07;;
4748;SDS011;2388;53.582;9.962;2023-04-24T05:46:56;0.87;;;0.87;;
4748;SDS011;2388;53.582;9.962;2023-04-24T05:49:22;1.17;;;1.07;;
4748;SDS011;2388;53.582;9.962;2023-04-24T05:51:48;0.80;;;0.70;;
4748;SDS011;2388;53.582;9.962;2023-04-24T05:54:13;0.90;;;0.77;;
4748;SDS011;2388;53.582;9.962;2023-04-24T05:56:39;1.47;;;1.37;;
4748;SDS011;2388;53.582;9.962;2023-04-24T05:59:05;0.97;;;0.97;;
4748;SDS011;2388;53.582;9.962;2023-04-24T06:01:31;2.27;;;1.00;;
4748;SDS011;2388;53.582;9.962;2023-04-24T06:03:56;1.00;;;0.80;;
4748;SDS011;2388;53.582;9.962;2023-04-24T06:06:23;1.47;;;1.37;;
4748;SDS011;2388;53.582;9.962;2023-04-24T06:08:48;1.37;;;1.27;;
4748;SDS011;2388;53.582;9.962;2023-04-24T06:11:14;0.97;;;0.87;;
4748;SDS011;2388;53.582;9.962;2023-04-24T06:13:40;1.13;;;1.00;;
4748;SDS011;2388;53.582;9.962;2023-04-24T06:16:05;1.10;;;1.00;;
4748;SDS011;2388;53.582;9.962;2023-04-24T06:18:31;2.93;;;1.40;;
4748;SDS011;2388;53.582;9.962;2023-04-24T06:20:56;1.67;;;1.57;;
4748;SDS011;2388;53.582;9.962;2023-04-24T06:23:22;2.80;;;1.40;;
4748;SDS011;2388;53.582;9.962;2023-04-24T06:25:47;1.70;;;1.50;;
4748;SDS011;2388;53.582;9.962;2023-04-24T06:28:13;1.40;;;1.20;;
4748;SDS011;2388;53.582;9.962;2023-04-24T06:30:38;1.40;;;1.30;;
4748;SDS011;2388;53.582;9.962;2023-04-24T06:33:04;2.40;;;1.80;;
4748;SDS011;2388;53.582;9.962;2023-04-24T06:35:29;1.93;;;1.83;;
4748;SDS011;2388;53.582;9.962;2023-04-24T06:37:55;4.93;;;1.90;;
4748;SDS011;2388;53.582;9.962;2023-04-24T06:40:21;3.50;;;2.77;;
4748;SDS011;2388;53.582;9.962;2023-04-24T06:42:46;3.63;;;2.17;;
4748;SDS011;2388;53.582;9.962;2023-04-24T06:45:12;7.63;;;2.20;;
4748;SDS011;2388;53.582;9.962;2023-04-24T06:47:37;5.30;;;2.43;;
4748;SDS011;2388;53.582;9.962;2023-04-24T06:50:03;3.77;;;1.93;;
4748;SDS011;2388;53.582;9.962;2023-04-24T06:52:29;1.87;;;1.47;;
4748;SDS011;2388;53.582;9.962;2023-04-24T06:55:03;2.13;;;1.57;;
4748;SDS011;2388;53.582;9.962;2023-04-24T06:57:29;4.03;;;1.43;;
4748;SDS011;2388;53.582;9.962;2023-04-24T06:59:56;20.90;;;2.60;;
4748;SDS011;2388;53.582;9.962;2023-04-24T07:02:22;14.77;;;3.20;;
4748;SDS011;2388;53.582;9.962;2023-04-24T07:04:48;30.33;;;3.50;;
4748;SDS011;2388;53.582;9.962;2023-04-24T07:07:13;7.37;;;2.67;;
4748;SDS011;2388;53.582;9.962;2023-04-24T07:09:39;1.90;;;1.80;;
4748;SDS011;2388;53.582;9.962;2023-04-24T07:12:09;3.93;;;1.90;;
4748;SDS011;2388;53.582;9.962;2023-04-24T07:14:38;14.13;;;3.50;;
4748;SDS011;2388;53.582;9.962;2023-04-24T07:17:04;4.40;;;2.10;;
4748;SDS011;2388;53.582;9.962;2023-04-24T07:19:31;6.83;;;2.30;;
4748;SDS011;2388;53.582;9.962;2023-04-24T07:21:58;13.67;;;2.83;;
4748;SDS011;2388;53.582;9.962;2023-04-24T07:24:24;3.23;;;2.40;;
4748;SDS011;2388;53.582;9.962;2023-04-24T07:26:50;2.50;;;1.90;;
4748;SDS011;2388;53.582;9.962;2023-04-24T07:29:16;2.67;;;2.10;;
4748;SDS011;2388;53.582;9.962;2023-04-24T07:31:42;2.73;;;2.50;;
4748;SDS011;2388;53.582;9.962;2023-04-24T07:34:08;1.80;;;1.70;;
4748;SDS011;2388;53.582;9.962;2023-04-24T07:36:33;3.37;;;2.10;;
4748;SDS011;2388;53.582;9.962;2023-04-24T07:38:59;2.30;;;2.20;;
4748;SDS011;2388;53.582;9.962;2023-04-24T07:41:24;2.43;;;2.33;;
4748;SDS011;2388;53.582;9.962;2023-04-24T07:43:50;5.63;;;2.87;;
4748;SDS011;2388;53.582;9.962;2023-04-24T07:46:16;2.63;;;2.50;;
4748;SDS011;2388;53.582;9.962;2023-04-24T07:48:41;2.20;;;2.10;;
4748;SDS011;2388;53.582;9.962;2023-04-24T07:51:07;6.10;;;2.73;;
4748;SDS011;2388;53.582;9.962;2023-04-24T07:53:35;2.70;;;2.50;;
4748;SDS011;2388;53.582;9.962;2023-04-24T07:56:00;2.93;;;2.83;;
4748;SDS011;2388;53.582;9.962;2023-04-24T07:58:26;3.70;;;3.40;;
4748;SDS011;2388;53.582;9.962;2023-04-24T08:00:51;6.30;;;3.00;;
4748;SDS011;2388;53.582;9.962;2023-04-24T08:03:17;3.60;;;3.27;;
4748;SDS011;2388;53.582;9.962;2023-04-24T08:05:44;4.07;;;3.77;;
4748;SDS011;2388;53.582;9.962;2023-04-24T08:08:10;3.30;;;3.10;;
4748;SDS011;2388;53.582;9.962;2023-04-24T08:10:36;3.30;;;3.07;;
4748;SDS011;2388;53.582;9.962;2023-04-24T08:13:01;2.97;;;2.87;;
4748;SDS011;2388;53.582;9.962;2023-04-24T08:15:27;10.90;;;7.80;;
4748;SDS011;2388;53.582;9.962;2023-04-24T08:17:53;19.47;;;13.70;;
4748;SDS011;2388;53.582;9.962;2023-04-24T08:20:19;4.20;;;3.90;;
4748;SDS011;2388;53.582;9.962;2023-04-24T08:22:44;3.40;;;3.20;;
4748;SDS011;2388;53.582;9.962;2023-04-24T08:25:12;9.90;;;4.47;;
4748;SDS011;2388;53.582;9.962;2023-04-24T08:27:37;5.77;;;3.47;;
4748;SDS011;2388;53.582;9.962;2023-04-24T08:30:04;8.23;;;4.20;;
4748;SDS011;2388;53.582;9.962;2023-04-24T08:32:30;5.00;;;3.77;;
4748;SDS011;2388;53.582;9.962;2023-04-24T08:34:56;3.43;;;3.10;;
4748;SDS011;2388;53.582;9.962;2023-04-24T08:37:22;4.10;;;3.73;;
4748;SDS011;2388;53.582;9.962;2023-04-24T08:39:51;4.20;;;3.90;;
4748;SDS011;2388;53.582;9.962;2023-04-24T08:42:18;3.67;;;3.47;;
4748;SDS011;2388;53.582;9.962;2023-04-24T08:44:45;3.70;;;3.50;;
4748;SDS011;2388;53.582;9.962;2023-04-24T08:47:11;4.03;;;3.73;;
4748;SDS011;2388;53.582;9.962;2023-04-24T08:49:37;4.63;;;3.20;;
4748;SDS011;2388;53.582;9.962;2023-04-24T08:52:04;4.27;;;3.97;;
4748;SDS011;2388;53.582;9.962;2023-04-24T08:54:31;3.73;;;3.53;;
4748;SDS011;2388;53.582;9.962;2023-04-24T08:56:59;4.70;;;3.70;;
4748;SDS011;2388;53.582;9.962;2023-04-24T08:59:29;4.57;;;4.27;;
4748;SDS011;2388;53.582;9.962;2023-04-24T09:01:59;5.00;;;4.50;;
4748;SDS011;2388;53.582;9.962;2023-04-24T09:04:25;4.13;;;3.93;;
4748;SDS011;2388;53.582;9.962;2023-04-24T09:06:51;5.40;;;5.00;;
4748;SDS011;2388;53.582;9.962;2023-04-24T09:09:20;4.93;;;4.53;;
4748;SDS011;2388;53.582;9.962;2023-04-24T09:11:48;5.07;;;4.67;;
4748;SDS011;2388;53.582;9.962;2023-04-24T09:14:15;4.97;;;4.70;;
4748;SDS011;2388;53.582;9.962;2023-04-24T09:16:42;4.30;;;4.10;;
4748;SDS011;2388;53.582;9.962;2023-04-24T09:19:07;5.00;;;4.60;;
4748;SDS011;2388;53.582;9.962;2023-04-24T09:21:33;5.23;;;4.83;;
4748;SDS011;2388;53.582;9.962;2023-04-24T09:24:01;5.20;;;4.90;;
4748;SDS011;2388;53.582;9.962;2023-04-24T09:26:31;5.00;;;4.60;;
4748;SDS011;2388;53.582;9.962;2023-04-24T09:28:59;4.77;;;4.37;;
4748;SDS011;2388;53.582;9.962;2023-04-24T09:31:26;8.50;;;4.60;;
4748;SDS011;2388;53.582;9.962;2023-04-24T09:36:22;7.17;;;4.23;;
4748;SDS011;2388;53.582;9.962;2023-04-24T09:38:58;4.13;;;3.73;;
4748;SDS011;2388;53.582;9.962;2023-04-24T09:41:24;4.97;;;4.50;;
4748;SDS011;2388;53.582;9.962;2023-04-24T09:43:51;4.10;;;3.90;;
4748;SDS011;2388;53.582;9.962;2023-04-24T09:46:19;4.90;;;4.50;;
4748;SDS011;2388;53.582;9.962;2023-04-24T09:48:46;4.73;;;4.33;;
4748;SDS011;2388;53.582;9.962;2023-04-24T09:51:12;10.77;;;4.33;;
4748;SDS011;2388;53.582;9.962;2023-04-24T09:53:38;6.87;;;5.63;;
4748;SDS011;2388;53.582;9.962;2023-04-24T09:56:10;5.93;;;5.43;;
4748;SDS011;2388;53.582;9.962;2023-04-24T09:58:37;5.13;;;4.70;;
4748;SDS011;2388;53.582;9.962;2023-04-24T10:01:03;5.73;;;5.23;;
4748;SDS011;2388;53.582;9.962;2023-04-24T10:03:29;6.00;;;5.07;;
4748;SDS011;2388;53.582;9.962;2023-04-24T10:05:59;6.53;;;4.97;;
4748;SDS011;2388;53.582;9.962;2023-04-24T10:08:25;5.60;;;5.00;;
4748;SDS011;2388;53.582;9.962;2023-04-24T10:10:57;5.57;;;5.10;;
4748;SDS011;2388;53.582;9.962;2023-04-24T10:13:24;5.97;;;5.47;;
4748;SDS011;2388;53.582;9.962;2023-04-24T10:15:50;7.43;;;6.60;;
4748;SDS011;2388;53.582;9.962;2023-04-24T10:18:16;5.87;;;5.30;;
4748;SDS011;2388;53.582;9.962;2023-04-24T10:20:42;8.10;;;5.43;;
4748;SDS011;2388;53.582;9.962;2023-04-24T10:23:08;7.67;;;5.90;;
4748;SDS011;2388;53.582;9.962;2023-04-24T10:25:34;7.23;;;6.50;;
4748;SDS011;2388;53.582;9.962;2023-04-24T10:28:01;6.73;;;6.23;;
4748;SDS011;2388;53.582;9.962;2023-04-24T10:30:27;8.10;;;7.13;;
4748;SDS011;2388;53.582;9.962;2023-04-24T10:33:02;7.23;;;6.53;;
4748;SDS011;2388;53.582;9.962;2023-04-24T10:35:29;8.53;;;7.73;;
4748;SDS011;2388;53.582;9.962;2023-04-24T10:37:57;8.00;;;7.20;;
4748;SDS011;2388;53.582;9.962;2023-04-24T10:40:29;12.30;;;7.43;;
4748;SDS011;2388;53.582;9.962;2023-04-24T10:42:56;10.30;;;7.67;;
4748;SDS011;2388;53.582;9.962;2023-04-24T10:45:22;12.27;;;7.93;;
4748;SDS011;2388;53.582;9.962;2023-04-24T10:47:52;11.50;;;8.60;;
4748;SDS011;2388;53.582;9.962;2023-04-24T10:50:18;10.77;;;8.60;;
4748;SDS011;2388;53.582;9.962;2023-04-24T10:52:47;9.00;;;8.10;;
4748;SDS011;2388;53.582;9.962;2023-04-24T10:55:15;10.10;;;8.53;;
4748;SDS011;2388;53.582;9.962;2023-04-24T10:58:03;8.73;;;7.80;;
4748;SDS011;2388;53.582;9.962;2023-04-24T11:00:29;11.23;;;8.33;;
4748;SDS011;2388;53.582;9.962;2023-04-24T11:02:55;9.97;;;8.10;;
4748;SDS011;2388;53.582;9.962;2023-04-24T11:05:21;9.00;;;7.30;;
4748;SDS011;2388;53.582;9.962;2023-04-24T11:10:39;10.43;;;7.93;;
4748;SDS011;2388;53.582;9.962;2023-04-24T11:13:06;8.57;;;7.73;;
4748;SDS011;2388;53.582;9.962;2023-04-24T11:15:31;8.40;;;7.20;;
4748;SDS011;2388;53.582;9.962;2023-04-24T11:20:33;7.47;;;6.77;;
4748;SDS011;2388;53.582;9.962;2023-04-24T11:23:03;7.33;;;6.70;;
4748;SDS011;2388;53.582;9.962;2023-04-24T11:25:30;8.90;;;7.77;;
4748;SDS011;2388;53.582;9.962;2023-04-24T11:28:03;7.67;;;6.47;;
4748;SDS011;2388;53.582;9.962;2023-04-24T11:30:29;10.37;;;6.30;;
4748;SDS011;2388;53.582;9.962;2023-04-24T11:32:56;8.17;;;6.47;;
4748;SDS011;2388;53.582;9.962;2023-04-24T11:35:30;7.97;;;6.63;;
4748;SDS011;2388;53.582;9.962;2023-04-24T11:38:02;10.87;;;8.87;;
4748;SDS011;2388;53.582;9.962;2023-04-24T11:40:28;9.63;;;6.73;;
4748;SDS011;2388;53.582;9.962;2023-04-24T11:42:53;7.87;;;6.30;;
4748;SDS011;2388;53.582;9.962;2023-04-24T11:45:26;8.13;;;6.73;;
4748;SDS011;2388;53.582;9.962;2023-04-24T11:47:53;7.10;;;6.30;;
4748;SDS011;2388;53.582;9.962;2023-04-24T11:50:20;12.40;;;7.10;;
4748;SDS011;2388;53.582;9.962;2023-04-24T11:52:47;7.00;;;6.30;;
4748;SDS011;2388;53.582;9.962;2023-04-24T11:57:39;8.73;;;7.50;;
4748;SDS011;2388;53.582;9.962;2023-04-24T12:00:14;6.70;;;6.00;;
4748;SDS011;2388;53.582;9.962;2023-04-24T12:02:41;7.80;;;6.30;;
4748;SDS011;2388;53.582;9.962;2023-04-24T12:05:07;6.73;;;6.13;;
4748;SDS011;2388;53.582;9.962;2023-04-24T12:07:39;7.20;;;5.90;;
4748;SDS011;2388;53.582;9.962;2023-04-24T12:10:09;7.60;;;5.20;;
4748;SDS011;2388;53.582;9.962;2023-04-24T12:12:35;5.60;;;5.10;;
4748;SDS011;2388;53.582;9.962;2023-04-24T12:15:01;9.73;;;5.73;;
4748;SDS011;2388;53.582;9.962;2023-04-24T12:17:32;6.13;;;5.60;;
4748;SDS011;2388;53.582;9.962;2023-04-24T12:20:07;5.63;;;5.13;;
4748;SDS011;2388;53.582;9.962;2023-04-24T12:22:52;5.93;;;4.63;;
4748;SDS011;2388;53.582;9.962;2023-04-24T12:25:20;6.20;;;4.30;;
4748;SDS011;2388;53.582;9.962;2023-04-24T12:27:53;5.23;;;4.73;;
4748;SDS011;2388;53.582;9.962;2023-04-24T12:30:20;8.43;;;4.60;;
4748;SDS011;2388;53.582;9.962;2023-04-24T12:32:47;8.60;;;5.40;;
4748;SDS011;2388;53.582;9.962;2023-04-24T12:35:14;7.33;;;6.50;;
4748;SDS011;2388;53.582;9.962;2023-04-24T12:37:45;7.27;;;5.37;;
4748;SDS011;2388;53.582;9.962;2023-04-24T12:40:11;6.07;;;5.53;;
4748;SDS011;2388;53.582;9.962;2023-04-24T12:42:45;5.07;;;4.60;;
4748;SDS011;2388;53.582;9.962;2023-04-24T12:45:12;5.20;;;4.70;;
4748;SDS011;2388;53.582;9.962;2023-04-24T12:47:39;5.80;;;5.27;;
4748;SDS011;2388;53.582;9.962;2023-04-24T12:50:06;8.57;;;5.13;;
4748;SDS011;2388;53.582;9.962;2023-04-24T12:52:33;5.40;;;4.90;;
4748;SDS011;2388;53.582;9.962;2023-04-24T12:54:59;5.43;;;4.50;;
4748;SDS011;2388;53.582;9.962;2023-04-24T12:57:26;6.23;;;5.73;;
4748;SDS011;2388;53.582;9.962;2023-04-24T12:59:54;5.57;;;5.17;;
4748;SDS011;2388;53.582;9.962;2023-04-24T13:02:23;5.20;;;4.80;;
4748;SDS011;2388;53.582;9.962;2023-04-24T13:04:50;5.57;;;5.10;;
4748;SDS011;2388;53.582;9.962;2023-04-24T13:07:16;5.80;;;5.30;;
4748;SDS011;2388;53.582;9.962;2023-04-24T13:09:42;5.13;;;4.70;;
4748;SDS011;2388;53.582;9.962;2023-04-24T13:12:08;8.23;;;5.27;;
4748;SDS011;2388;53.582;9.962;2023-04-24T13:14:35;7.30;;;5.27;;
4748;SDS011;2388;53.582;9.962;2023-04-24T13:17:00;5.17;;;4.77;;
4748;SDS011;2388;53.582;9.962;2023-04-24T13:19:26;5.13;;;4.70;;
4748;SDS011;2388;53.582;9.962;2023-04-24T13:21:52;4.80;;;4.40;;
4748;SDS011;2388;53.582;9.962;2023-04-24T13:24:20;4.37;;;4.10;;
4748;SDS011;2388;53.582;9.962;2023-04-24T13:26:45;5.00;;;4.50;;
4748;SDS011;2388;53.582;9.962;2023-04-24T13:29:11;4.80;;;4.40;;
4748;SDS011;2388;53.582;9.962;2023-04-24T13:31:36;4.33;;;3.93;;
4748;SDS011;2388;53.582;9.962;2023-04-24T13:34:02;5.13;;;4.70;;
4748;SDS011;2388;53.582;9.962;2023-04-24T13:36:28;4.70;;;4.40;;
4748;SDS011;2388;53.582;9.962;2023-04-24T13:38:55;6.00;;;4.77;;
4748;SDS011;2388;53.582;9.962;2023-04-24T13:41:20;4.40;;;3.73;;
4748;SDS011;2388;53.582;9.962;2023-04-24T13:43:46;5.10;;;4.70;;
4748;SDS011;2388;53.582;9.962;2023-04-24T13:46:11;4.30;;;4.00;;
4748;SDS011;2388;53.582;9.962;2023-04-24T13:48:37;4.60;;;4.30;;
4748;SDS011;2388;53.582;9.962;2023-04-24T13:51:02;4.13;;;3.93;;
4748;SDS011;2388;53.582;9.962;2023-04-24T13:53:28;4.70;;;4.30;;
4748;SDS011;2388;53.582;9.962;2023-04-24T13:55:53;4.70;;;4.30;;
4748;SDS011;2388;53.582;9.962;2023-04-24T13:58:19;4.77;;;4.27;;
4748;SDS011;2388;53.582;9.962;2023-04-24T14:00:45;4.50;;;4.20;;
4748;SDS011;2388;53.582;9.962;2023-04-24T14:03:11;5.23;;;4.83;;
4748;SDS011;2388;53.582;9.962;2023-04-24T14:05:36;5.03;;;4.70;;
4748;SDS011;2388;53.582;9.962;2023-04-24T14:08:02;5.10;;;4.70;;
4748;SDS011;2388;53.582;9.962;2023-04-24T14:10:27;5.80;;;4.27;;
4748;SDS011;2388;53.582;9.962;2023-04-24T14:12:53;3.97;;;3.67;;
4748;SDS011;2388;53.582;9.962;2023-04-24T14:15:19;4.20;;;3.90;;
4748;SDS011;2388;53.582;9.962;2023-04-24T14:17:44;7.40;;;4.10;;
4748;SDS011;2388;53.582;9.962;2023-04-24T14:20:10;4.00;;;3.70;;
4748;SDS011;2388;53.582;9.962;2023-04-24T14:22:37;4.10;;;3.80;;
4748;SDS011;2388;53.582;9.962;2023-04-24T14:25:02;3.97;;;3.77;;
4748;SDS011;2388;53.582;9.962;2023-04-24T14:27:29;3.90;;;3.60;;
4748;SDS011;2388;53.582;9.962;2023-04-24T14:29:55;4.17;;;3.90;;
4748;SDS011;2388;53.582;9.962;2023-04-24T14:32:20;4.83;;;4.30;;
4748;SDS011;2388;53.582;9.962;2023-04-24T14:34:46;4.53;;;4.20;;
4748;SDS011;2388;53.582;9.962;2023-04-24T14:37:11;8.33;;;4.77;;
4748;SDS011;2388;53.582;9.962;2023-04-24T14:39:37;6.30;;;5.80;;
4748;SDS011;2388;53.582;9.962;2023-04-24T14:42:03;7.83;;;6.03;;
4748;SDS011;2388;53.582;9.962;2023-04-24T14:44:28;5.83;;;5.43;;
4748;SDS011;2388;53.582;9.962;2023-04-24T14:46:53;6.70;;;6.20;;
4748;SDS011;2388;53.582;9.962;2023-04-24T14:49:19;8.93;;;7.37;;
4748;SDS011;2388;53.582;9.962;2023-04-24T14:51:45;6.57;;;5.97;;
4748;SDS011;2388;53.582;9.962;2023-04-24T14:54:10;6.73;;;5.90;;
4748;SDS011;2388;53.582;9.962;2023-04-24T14:56:36;6.80;;;6.30;;
4748;SDS011;2388;53.582;9.962;2023-04-24T14:59:04;8.80;;;8.10;;
4748;SDS011;2388;53.582;9.962;2023-04-24T15:01:30;8.40;;;7.67;;
4748;SDS011;2388;53.582;9.962;2023-04-24T15:03:55;9.00;;;7.93;;
4748;SDS011;2388;53.582;9.962;2023-04-24T15:06:20;7.43;;;6.77;;
4748;SDS011;2388;53.582;9.962;2023-04-24T15:08:46;7.23;;;6.63;;
4748;SDS011;2388;53.582;9.962;2023-04-24T15:11:13;8.17;;;7.37;;
4748;SDS011;2388;53.582;9.962;2023-04-24T15:13:38;6.87;;;6.20;;
4748;SDS011;2388;53.582;9.962;2023-04-24T15:16:04;7.20;;;6.43;;
4748;SDS011;2388;53.582;9.962;2023-04-24T15:18:30;7.00;;;6.30;;
4748;SDS011;2388;53.582;9.962;2023-04-24T15:20:55;5.10;;;4.67;;